8th FEBRUARY, 2016

 

METAR SMJP 080300Z 08002KT 9999 FEW010 SCT025 24/24 Q1015 NOSIG=